sensor_id;sensor_type;location;lat;lon;timestamp;pressure;altitude;pressure_sealevel;temperature;humidity
81387;BME280;70842;50.744;7.114;2024-02-15T00:01:45;101326.84;;;14.60;69.60
81387;BME280;70842;50.744;7.114;2024-02-15T00:04:11;101336.28;;;14.64;69.23
81387;BME280;70842;50.744;7.114;2024-02-15T00:06:55;101341.38;;;14.76;69.26
81387;BME280;70842;50.744;7.114;2024-02-15T00:09:22;101347.41;;;14.69;69.51
81387;BME280;70842;50.744;7.114;2024-02-15T00:11:48;101354.81;;;14.65;69.18
81387;BME280;70842;50.744;7.114;2024-02-15T00:14:15;101359.94;;;14.78;68.57
81387;BME280;70842;50.744;7.114;2024-02-15T00:16:41;101355.13;;;14.72;69.19
81387;BME280;70842;50.744;7.114;2024-02-15T00:19:08;101349.59;;;14.64;69.24
81387;BME280;70842;50.744;7.114;2024-02-15T00:21:35;101355.66;;;15.06;68.03
81387;BME280;70842;50.744;7.114;2024-02-15T00:24:02;101357.47;;;14.96;68.24
81387;BME280;70842;50.744;7.114;2024-02-15T00:26:29;101353.22;;;14.83;68.38
81387;BME280;70842;50.744;7.114;2024-02-15T00:28:57;101351.00;;;14.98;68.22
81387;BME280;70842;50.744;7.114;2024-02-15T00:31:24;101343.78;;;14.79;68.89
81387;BME280;70842;50.744;7.114;2024-02-15T00:33:51;101345.72;;;15.08;67.84
81387;BME280;70842;50.744;7.114;2024-02-15T00:36:18;101354.78;;;14.96;67.88
81387;BME280;70842;50.744;7.114;2024-02-15T00:38:45;101349.09;;;15.10;67.98
81387;BME280;70842;50.744;7.114;2024-02-15T00:41:11;101354.13;;;15.13;67.93
81387;BME280;70842;50.744;7.114;2024-02-15T00:43:39;101353.28;;;15.03;68.13
81387;BME280;70842;50.744;7.114;2024-02-15T00:46:05;101349.09;;;15.10;67.75
81387;BME280;70842;50.744;7.114;2024-02-15T00:48:32;101345.13;;;14.95;68.11
81387;BME280;70842;50.744;7.114;2024-02-15T00:50:59;101335.81;;;14.89;68.15
81387;BME280;70842;50.744;7.114;2024-02-15T00:53:26;101334.84;;;14.90;68.32
81387;BME280;70842;50.744;7.114;2024-02-15T00:55:52;101338.38;;;14.91;68.55
81387;BME280;70842;50.744;7.114;2024-02-15T00:58:19;101350.88;;;15.00;68.32
81387;BME280;70842;50.744;7.114;2024-02-15T01:00:48;101352.72;;;14.99;68.18
81387;BME280;70842;50.744;7.114;2024-02-15T01:03:15;101340.66;;;14.74;68.62
81387;BME280;70842;50.744;7.114;2024-02-15T01:05:42;101352.44;;;14.72;68.66
81387;BME280;70842;50.744;7.114;2024-02-15T01:08:08;101354.28;;;14.71;68.68
81387;BME280;70842;50.744;7.114;2024-02-15T01:10:35;101348.41;;;14.77;68.85
81387;BME280;70842;50.744;7.114;2024-02-15T01:13:05;101353.47;;;14.80;68.40
81387;BME280;70842;50.744;7.114;2024-02-15T01:15:31;101349.06;;;14.70;68.50
81387;BME280;70842;50.744;7.114;2024-02-15T01:17:58;101350.63;;;14.72;69.12
81387;BME280;70842;50.744;7.114;2024-02-15T01:20:25;101335.16;;;14.66;68.96
81387;BME280;70842;50.744;7.114;2024-02-15T01:22:53;101342.53;;;14.53;69.52
81387;BME280;70842;50.744;7.114;2024-02-15T01:25:19;101343.97;;;14.57;69.23
81387;BME280;70842;50.744;7.114;2024-02-15T01:27:46;101346.91;;;14.54;69.32
81387;BME280;70842;50.744;7.114;2024-02-15T01:30:14;101338.91;;;14.54;69.58
81387;BME280;70842;50.744;7.114;2024-02-15T01:32:41;101352.28;;;14.64;69.42
81387;BME280;70842;50.744;7.114;2024-02-15T01:35:09;101347.81;;;14.74;68.60
81387;BME280;70842;50.744;7.114;2024-02-15T01:37:36;101347.56;;;14.77;68.60
81387;BME280;70842;50.744;7.114;2024-02-15T01:40:04;101340.03;;;14.92;68.18
81387;BME280;70842;50.744;7.114;2024-02-15T01:42:32;101347.22;;;15.01;67.55
81387;BME280;70842;50.744;7.114;2024-02-15T01:44:59;101341.59;;;14.94;68.15
81387;BME280;70842;50.744;7.114;2024-02-15T01:47:27;101337.59;;;14.69;68.76
81387;BME280;70842;50.744;7.114;2024-02-15T01:49:53;101334.38;;;14.85;68.65
81387;BME280;70842;50.744;7.114;2024-02-15T01:52:20;101332.66;;;14.74;68.27
81387;BME280;70842;50.744;7.114;2024-02-15T01:54:48;101331.69;;;14.75;68.61
81387;BME280;70842;50.744;7.114;2024-02-15T01:57:16;101330.50;;;14.99;67.82
81387;BME280;70842;50.744;7.114;2024-02-15T01:59:42;101328.09;;;14.86;68.62
81387;BME280;70842;50.744;7.114;2024-02-15T02:02:10;101325.13;;;14.89;68.40
81387;BME280;70842;50.744;7.114;2024-02-15T02:04:39;101323.88;;;14.53;68.87
81387;BME280;70842;50.744;7.114;2024-02-15T02:07:07;101315.00;;;14.73;69.01
81387;BME280;70842;50.744;7.114;2024-02-15T02:09:34;101320.19;;;14.84;68.36
81387;BME280;70842;50.744;7.114;2024-02-15T02:12:00;101306.28;;;14.71;69.07
81387;BME280;70842;50.744;7.114;2024-02-15T02:14:27;101322.59;;;14.88;68.65
81387;BME280;70842;50.744;7.114;2024-02-15T02:16:54;101317.13;;;14.79;68.74
81387;BME280;70842;50.744;7.114;2024-02-15T02:19:21;101306.69;;;14.76;68.65
81387;BME280;70842;50.744;7.114;2024-02-15T02:21:49;101308.56;;;14.85;68.32
81387;BME280;70842;50.744;7.114;2024-02-15T02:24:23;101298.59;;;14.78;69.01
81387;BME280;70842;50.744;7.114;2024-02-15T02:26:51;101303.78;;;14.79;68.69
81387;BME280;70842;50.744;7.114;2024-02-15T02:29:18;101303.13;;;14.57;69.80
81387;BME280;70842;50.744;7.114;2024-02-15T02:31:45;101298.28;;;14.81;69.04
81387;BME280;70842;50.744;7.114;2024-02-15T02:34:11;101292.00;;;14.82;69.10
81387;BME280;70842;50.744;7.114;2024-02-15T02:36:43;101291.75;;;14.95;68.43
81387;BME280;70842;50.744;7.114;2024-02-15T02:39:10;101291.44;;;14.88;68.59
81387;BME280;70842;50.744;7.114;2024-02-15T02:41:37;101295.47;;;14.82;68.69
81387;BME280;70842;50.744;7.114;2024-02-15T02:44:04;101285.97;;;14.90;68.58
81387;BME280;70842;50.744;7.114;2024-02-15T02:46:30;101277.78;;;14.81;68.90
81387;BME280;70842;50.744;7.114;2024-02-15T02:48:57;101286.69;;;15.01;68.43
81387;BME280;70842;50.744;7.114;2024-02-15T02:51:24;101278.25;;;14.87;67.85
81387;BME280;70842;50.744;7.114;2024-02-15T02:53:50;101286.69;;;15.01;68.18
81387;BME280;70842;50.744;7.114;2024-02-15T02:56:17;101285.25;;;14.88;68.51
81387;BME280;70842;50.744;7.114;2024-02-15T02:58:45;101289.78;;;14.97;67.88
81387;BME280;70842;50.744;7.114;2024-02-15T03:01:11;101281.09;;;15.14;67.57
81387;BME280;70842;50.744;7.114;2024-02-15T03:03:38;101271.38;;;15.03;67.45
81387;BME280;70842;50.744;7.114;2024-02-15T03:06:06;101269.28;;;15.07;67.59
81387;BME280;70842;50.744;7.114;2024-02-15T03:08:32;101279.41;;;15.03;67.40
81387;BME280;70842;50.744;7.114;2024-02-15T03:11:00;101272.50;;;15.10;67.44
81387;BME280;70842;50.744;7.114;2024-02-15T03:13:27;101276.59;;;15.14;67.14
81387;BME280;70842;50.744;7.114;2024-02-15T03:15:53;101276.88;;;15.11;67.20
81387;BME280;70842;50.744;7.114;2024-02-15T03:18:20;101272.47;;;14.91;68.33
81387;BME280;70842;50.744;7.114;2024-02-15T03:20:47;101264.19;;;14.94;68.15
81387;BME280;70842;50.744;7.114;2024-02-15T03:23:15;101267.69;;;14.75;68.09
81387;BME280;70842;50.744;7.114;2024-02-15T03:25:41;101258.69;;;14.76;68.71
81387;BME280;70842;50.744;7.114;2024-02-15T03:28:08;101254.50;;;14.83;68.23
81387;BME280;70842;50.744;7.114;2024-02-15T03:30:34;101266.06;;;14.63;68.70
81387;BME280;70842;50.744;7.114;2024-02-15T03:33:01;101258.97;;;14.73;68.10
81387;BME280;70842;50.744;7.114;2024-02-15T03:35:32;101263.84;;;14.59;68.99
81387;BME280;70842;50.744;7.114;2024-02-15T03:37:59;101263.69;;;14.60;68.50
81387;BME280;70842;50.744;7.114;2024-02-15T03:40:27;101263.06;;;14.87;68.26
81387;BME280;70842;50.744;7.114;2024-02-15T03:42:53;101258.31;;;14.91;67.87
81387;BME280;70842;50.744;7.114;2024-02-15T03:45:20;101256.75;;;14.98;67.60
81387;BME280;70842;50.744;7.114;2024-02-15T03:47:49;101263.09;;;14.97;67.42
81387;BME280;70842;50.744;7.114;2024-02-15T03:50:16;101267.16;;;15.01;67.73
81387;BME280;70842;50.744;7.114;2024-02-15T03:52:45;101268.97;;;14.91;68.00
81387;BME280;70842;50.744;7.114;2024-02-15T03:55:12;101266.34;;;15.10;67.21
81387;BME280;70842;50.744;7.114;2024-02-15T03:57:39;101267.31;;;15.09;67.21
81387;BME280;70842;50.744;7.114;2024-02-15T04:00:15;101265.19;;;15.03;67.46
81387;BME280;70842;50.744;7.114;2024-02-15T04:02:48;101261.72;;;15.21;66.88
81387;BME280;70842;50.744;7.114;2024-02-15T04:05:15;101252.84;;;15.11;67.55
81387;BME280;70842;50.744;7.114;2024-02-15T04:07:44;101251.84;;;15.03;67.38
81387;BME280;70842;50.744;7.114;2024-02-15T04:10:11;101253.38;;;14.96;67.62
81387;BME280;70842;50.744;7.114;2024-02-15T04:12:38;101259.81;;;14.83;68.07
81387;BME280;70842;50.744;7.114;2024-02-15T04:15:08;101265.31;;;14.92;68.04
81387;BME280;70842;50.744;7.114;2024-02-15T04:17:42;101266.38;;;14.60;68.55
81387;BME280;70842;50.744;7.114;2024-02-15T04:20:10;101267.88;;;14.53;69.18
81387;BME280;70842;50.744;7.114;2024-02-15T04:22:39;101257.75;;;14.47;69.58
81387;BME280;70842;50.744;7.114;2024-02-15T04:25:09;101265.38;;;14.61;69.19
81387;BME280;70842;50.744;7.114;2024-02-15T04:27:37;101265.50;;;14.50;69.14
81387;BME280;70842;50.744;7.114;2024-02-15T04:30:04;101262.31;;;14.36;69.84
81387;BME280;70842;50.744;7.114;2024-02-15T04:32:32;101258.63;;;14.57;69.21
81387;BME280;70842;50.744;7.114;2024-02-15T04:35:01;101257.66;;;14.58;69.58
81387;BME280;70842;50.744;7.114;2024-02-15T04:37:28;101247.47;;;14.43;69.66
81387;BME280;70842;50.744;7.114;2024-02-15T04:39:59;101253.63;;;14.34;69.90
81387;BME280;70842;50.744;7.114;2024-02-15T04:42:33;101251.44;;;14.48;69.81
81387;BME280;70842;50.744;7.114;2024-02-15T04:45:01;101260.66;;;14.35;69.94
81387;BME280;70842;50.744;7.114;2024-02-15T04:47:27;101252.19;;;14.30;70.08
81387;BME280;70842;50.744;7.114;2024-02-15T04:49:56;101252.38;;;14.17;70.62
81387;BME280;70842;50.744;7.114;2024-02-15T04:52:22;101262.69;;;14.52;69.34
81387;BME280;70842;50.744;7.114;2024-02-15T04:54:50;101258.88;;;14.24;70.47
81387;BME280;70842;50.744;7.114;2024-02-15T04:57:17;101250.19;;;14.22;70.63
81387;BME280;70842;50.744;7.114;2024-02-15T04:59:43;101247.56;;;14.32;70.13
81387;BME280;70842;50.744;7.114;2024-02-15T05:02:13;101261.50;;;14.35;69.99
81387;BME280;70842;50.744;7.114;2024-02-15T05:04:40;101264.16;;;14.35;69.94
81387;BME280;70842;50.744;7.114;2024-02-15T05:07:09;101249.13;;;14.34;70.38
81387;BME280;70842;50.744;7.114;2024-02-15T05:09:36;101254.03;;;14.29;70.57
81387;BME280;70842;50.744;7.114;2024-02-15T05:12:02;101247.97;;;14.27;70.66
81387;BME280;70842;50.744;7.114;2024-02-15T05:14:30;101249.88;;;14.16;70.97
81387;BME280;70842;50.744;7.114;2024-02-15T05:16:57;101251.44;;;14.48;69.94
81387;BME280;70842;50.744;7.114;2024-02-15T05:19:23;101240.59;;;14.10;70.84
81387;BME280;70842;50.744;7.114;2024-02-15T05:21:50;101239.97;;;14.27;70.65
81387;BME280;70842;50.744;7.114;2024-02-15T05:24:19;101238.06;;;14.39;70.06
81387;BME280;70842;50.744;7.114;2024-02-15T05:26:46;101248.91;;;14.47;70.34
81387;BME280;70842;50.744;7.114;2024-02-15T05:29:16;101244.72;;;14.54;69.73
81387;BME280;70842;50.744;7.114;2024-02-15T05:31:43;101237.69;;;14.53;69.92
81387;BME280;70842;50.744;7.114;2024-02-15T05:34:11;101234.94;;;14.34;70.12
81387;BME280;70842;50.744;7.114;2024-02-15T05:36:39;101241.72;;;14.17;70.94
81387;BME280;70842;50.744;7.114;2024-02-15T05:39:05;101236.50;;;14.36;70.34
81387;BME280;70842;50.744;7.114;2024-02-15T05:41:32;101241.59;;;14.49;69.82
81387;BME280;70842;50.744;7.114;2024-02-15T05:43:59;101231.84;;;14.68;69.62
81387;BME280;70842;50.744;7.114;2024-02-15T05:46:25;101233.84;;;14.36;70.18
81387;BME280;70842;50.744;7.114;2024-02-15T05:48:54;101238.13;;;14.28;70.40
81387;BME280;70842;50.744;7.114;2024-02-15T05:51:21;101236.19;;;14.30;70.29
81387;BME280;70842;50.744;7.114;2024-02-15T05:53:49;101240.25;;;14.54;69.84
81387;BME280;70842;50.744;7.114;2024-02-15T05:56:16;101233.00;;;14.75;68.82
81387;BME280;70842;50.744;7.114;2024-02-15T05:58:43;101234.41;;;14.79;68.58
81387;BME280;70842;50.744;7.114;2024-02-15T06:01:09;101231.53;;;14.62;69.30
81387;BME280;70842;50.744;7.114;2024-02-15T06:03:39;101223.66;;;14.51;69.47
81387;BME280;70842;50.744;7.114;2024-02-15T06:06:07;101232.28;;;14.73;68.82
81387;BME280;70842;50.744;7.114;2024-02-15T06:08:34;101223.41;;;14.63;69.29
81387;BME280;70842;50.744;7.114;2024-02-15T06:11:02;101231.69;;;14.70;69.03
81387;BME280;70842;50.744;7.114;2024-02-15T06:13:29;101230.72;;;14.71;68.99
81387;BME280;70842;50.744;7.114;2024-02-15T06:15:56;101224.63;;;14.50;69.75
81387;BME280;70842;50.744;7.114;2024-02-15T06:18:25;101226.19;;;14.52;69.16
81387;BME280;70842;50.744;7.114;2024-02-15T06:20:58;101227.22;;;14.61;69.26
81387;BME280;70842;50.744;7.114;2024-02-15T06:23:26;101225.84;;;14.36;69.75
81387;BME280;70842;50.744;7.114;2024-02-15T06:25:55;101216.09;;;14.26;69.77
81387;BME280;70842;50.744;7.114;2024-02-15T06:28:22;101215.34;;;14.44;68.97
81387;BME280;70842;50.744;7.114;2024-02-15T06:31:08;101214.63;;;14.42;69.23
81387;BME280;70842;50.744;7.114;2024-02-15T06:33:54;101221.13;;;14.49;69.39
81387;BME280;70842;50.744;7.114;2024-02-15T06:36:46;101225.84;;;14.36;69.94
81387;BME280;70842;50.744;7.114;2024-02-15T06:39:32;101223.38;;;14.54;69.44
81387;BME280;70842;50.744;7.114;2024-02-15T06:42:09;101224.00;;;14.76;68.41
81387;BME280;70842;50.744;7.114;2024-02-15T06:44:37;101225.53;;;14.69;68.75
81387;BME280;70842;50.744;7.114;2024-02-15T06:47:06;101225.03;;;14.45;69.35
81387;BME280;70842;50.744;7.114;2024-02-15T06:49:33;101225.84;;;14.36;69.44
81387;BME280;70842;50.744;7.114;2024-02-15T06:52:00;101212.69;;;14.44;69.66
81387;BME280;70842;50.744;7.114;2024-02-15T06:54:28;101230.06;;;14.88;68.38
81387;BME280;70842;50.744;7.114;2024-02-15T06:56:55;101222.47;;;14.83;68.07
81387;BME280;70842;50.744;7.114;2024-02-15T06:59:22;101228.28;;;15.08;66.79
81387;BME280;70842;50.744;7.114;2024-02-15T07:01:51;101233.19;;;15.03;67.77
81387;BME280;70842;50.744;7.114;2024-02-15T07:04:20;101227.97;;;15.11;66.92
81387;BME280;70842;50.744;7.114;2024-02-15T07:06:47;101228.81;;;15.21;67.33
81387;BME280;70842;50.744;7.114;2024-02-15T07:09:16;101236.41;;;15.16;67.04
81387;BME280;70842;50.744;7.114;2024-02-15T07:11:44;101226.56;;;15.07;67.84
81387;BME280;70842;50.744;7.114;2024-02-15T07:14:16;101243.03;;;15.12;67.19
81387;BME280;70842;50.744;7.114;2024-02-15T07:16:46;101238.84;;;14.60;68.34
81387;BME280;70842;50.744;7.114;2024-02-15T07:19:13;101240.34;;;14.93;67.92
81387;BME280;70842;50.744;7.114;2024-02-15T07:21:41;101246.50;;;14.83;68.33
81387;BME280;70842;50.744;7.114;2024-02-15T07:24:07;101230.91;;;14.39;69.51
81387;BME280;70842;50.744;7.114;2024-02-15T07:26:36;101254.63;;;14.12;70.90
81387;BME280;70842;50.744;7.114;2024-02-15T07:29:03;101242.09;;;14.73;68.59
81387;BME280;70842;50.744;7.114;2024-02-15T07:31:32;101245.81;;;14.42;69.17
81387;BME280;70842;50.744;7.114;2024-02-15T07:34:02;101255.16;;;14.76;68.11
81387;BME280;70842;50.744;7.114;2024-02-15T07:36:30;101266.47;;;14.99;68.12
81387;BME280;70842;50.744;7.114;2024-02-15T07:38:56;101264.47;;;14.81;68.55
81387;BME280;70842;50.744;7.114;2024-02-15T07:41:28;101259.00;;;14.43;69.57
81387;BME280;70842;50.744;7.114;2024-02-15T07:43:54;101261.63;;;14.73;68.86
81387;BME280;70842;50.744;7.114;2024-02-15T07:46:22;101262.91;;;14.69;69.11
81387;BME280;70842;50.744;7.114;2024-02-15T07:48:48;101264.47;;;14.91;68.42
81387;BME280;70842;50.744;7.114;2024-02-15T07:51:17;101264.19;;;15.04;68.10
81387;BME280;70842;50.744;7.114;2024-02-15T07:53:47;101268.19;;;15.38;67.25
81387;BME280;70842;50.744;7.114;2024-02-15T07:56:15;101274.31;;;14.91;68.30
81387;BME280;70842;50.744;7.114;2024-02-15T07:58:47;101268.72;;;15.13;68.30
81387;BME280;70842;50.744;7.114;2024-02-15T08:01:19;101279.63;;;14.81;68.81
81387;BME280;70842;50.744;7.114;2024-02-15T08:03:50;101280.47;;;14.91;68.65
81387;BME280;70842;50.744;7.114;2024-02-15T08:06:19;101279.41;;;15.03;68.26
81387;BME280;70842;50.744;7.114;2024-02-15T08:08:46;101285.41;;;14.86;68.27
81387;BME280;70842;50.744;7.114;2024-02-15T08:11:14;101268.94;;;14.71;69.14
81387;BME280;70842;50.744;7.114;2024-02-15T08:13:48;101267.53;;;14.77;69.00
81387;BME280;70842;50.744;7.114;2024-02-15T08:16:16;101271.34;;;14.44;69.95
81387;BME280;70842;50.744;7.114;2024-02-15T08:18:43;101274.47;;;14.49;70.03
81387;BME280;70842;50.744;7.114;2024-02-15T08:21:10;101269.19;;;14.59;69.73
81387;BME280;70842;50.744;7.114;2024-02-15T08:23:37;101268.28;;;14.98;68.56
81387;BME280;70842;50.744;7.114;2024-02-15T08:26:04;101262.28;;;14.56;69.23
81387;BME280;70842;50.744;7.114;2024-02-15T08:28:31;101262.50;;;14.93;68.50
81387;BME280;70842;50.744;7.114;2024-02-15T08:30:57;101268.56;;;15.05;68.04
81387;BME280;70842;50.744;7.114;2024-02-15T08:33:24;101247.34;;;14.94;68.70
81387;BME280;70842;50.744;7.114;2024-02-15T08:35:51;101256.50;;;15.10;68.13
81387;BME280;70842;50.744;7.114;2024-02-15T08:38:22;101247.50;;;14.92;67.57
81387;BME280;70842;50.744;7.114;2024-02-15T08:40:49;101256.44;;;14.81;68.56
81387;BME280;70842;50.744;7.114;2024-02-15T08:43:15;101261.38;;;14.96;68.58
81387;BME280;70842;50.744;7.114;2024-02-15T08:45:42;101258.53;;;14.68;68.43
81387;BME280;70842;50.744;7.114;2024-02-15T08:48:10;101255.69;;;14.60;69.10
81387;BME280;70842;50.744;7.114;2024-02-15T08:50:37;101256.03;;;14.86;68.29
81387;BME280;70842;50.744;7.114;2024-02-15T08:53:03;101252.88;;;15.30;67.23
81387;BME280;70842;50.744;7.114;2024-02-15T08:55:33;101242.84;;;14.94;67.13
81387;BME280;70842;50.744;7.114;2024-02-15T08:58:02;101237.16;;;14.59;69.21
81387;BME280;70842;50.744;7.114;2024-02-15T09:00:29;101237.53;;;15.23;67.05
81387;BME280;70842;50.744;7.114;2024-02-15T09:02:56;101237.53;;;15.32;66.75
81387;BME280;70842;50.744;7.114;2024-02-15T09:05:23;101231.38;;;15.41;66.34
81387;BME280;70842;50.744;7.114;2024-02-15T09:07:50;101240.50;;;15.20;66.15
81387;BME280;70842;50.744;7.114;2024-02-15T09:10:18;101238.66;;;15.30;66.41
81387;BME280;70842;50.744;7.114;2024-02-15T09:12:47;101234.69;;;14.96;67.29
81387;BME280;70842;50.744;7.114;2024-02-15T09:15:15;101230.66;;;15.68;65.42
81387;BME280;70842;50.744;7.114;2024-02-15T09:17:42;101234.56;;;14.78;67.34
81387;BME280;70842;50.744;7.114;2024-02-15T09:20:11;101225.44;;;15.38;66.33
81387;BME280;70842;50.744;7.114;2024-02-15T09:22:42;101222.91;;;14.98;66.86
81387;BME280;70842;50.744;7.114;2024-02-15T09:25:09;101219.81;;;15.12;65.56
81387;BME280;70842;50.744;7.114;2024-02-15T09:27:36;101219.56;;;15.53;64.58
81387;BME280;70842;50.744;7.114;2024-02-15T09:30:03;101208.63;;;15.56;64.44
81387;BME280;70842;50.744;7.114;2024-02-15T09:32:34;101202.81;;;15.61;64.49
81387;BME280;70842;50.744;7.114;2024-02-15T09:35:01;101202.09;;;15.78;63.76
81387;BME280;70842;50.744;7.114;2024-02-15T09:37:31;101208.91;;;16.09;63.82
81387;BME280;70842;50.744;7.114;2024-02-15T09:39:59;101200.94;;;15.90;63.05
81387;BME280;70842;50.744;7.114;2024-02-15T09:42:30;101214.19;;;15.63;63.95
81387;BME280;70842;50.744;7.114;2024-02-15T09:44:57;101211.75;;;15.89;62.64
81387;BME280;70842;50.744;7.114;2024-02-15T09:47:25;101207.25;;;15.89;62.93
81387;BME280;70842;50.744;7.114;2024-02-15T09:49:52;101215.28;;;15.99;62.58
81387;BME280;70842;50.744;7.114;2024-02-15T09:52:19;101215.59;;;15.77;62.90
81387;BME280;70842;50.744;7.114;2024-02-15T09:54:47;101217.00;;;15.81;62.75
81387;BME280;70842;50.744;7.114;2024-02-15T09:57:13;101212.53;;;16.18;61.74
81387;BME280;70842;50.744;7.114;2024-02-15T09:59:40;101197.75;;;16.14;61.93
81387;BME280;70842;50.744;7.114;2024-02-15T10:02:08;101205.44;;;16.81;60.23
81387;BME280;70842;50.744;7.114;2024-02-15T10:04:38;101205.13;;;16.84;59.72
81387;BME280;70842;50.744;7.114;2024-02-15T10:07:05;101191.41;;;16.52;60.22
81387;BME280;70842;50.744;7.114;2024-02-15T10:09:36;101199.53;;;16.60;60.34
81387;BME280;70842;50.744;7.114;2024-02-15T10:12:03;101200.56;;;16.76;60.56
81387;BME280;70842;50.744;7.114;2024-02-15T10:14:34;101191.09;;;16.55;60.59
81387;BME280;70842;50.744;7.114;2024-02-15T10:17:07;101196.41;;;16.37;60.75
81387;BME280;70842;50.744;7.114;2024-02-15T10:19:36;101204.44;;;16.27;60.26
81387;BME280;70842;50.744;7.114;2024-02-15T10:22:07;101208.38;;;15.96;61.64
81387;BME280;70842;50.744;7.114;2024-02-15T10:24:34;101200.56;;;16.76;59.72
81387;BME280;70842;50.744;7.114;2024-02-15T10:27:02;101197.59;;;16.79;59.09
81387;BME280;70842;50.744;7.114;2024-02-15T10:29:33;101195.59;;;16.54;60.11
81387;BME280;70842;50.744;7.114;2024-02-15T10:32:01;101201.75;;;16.64;59.43
81387;BME280;70842;50.744;7.114;2024-02-15T10:34:29;101204.44;;;16.82;59.52
81387;BME280;70842;50.744;7.114;2024-02-15T10:37:13;101201.88;;;16.90;59.31
81387;BME280;70842;50.744;7.114;2024-02-15T10:39:42;101198.66;;;17.04;59.03
81387;BME280;70842;50.744;7.114;2024-02-15T10:42:09;101201.25;;;16.96;58.66
81387;BME280;70842;50.744;7.114;2024-02-15T10:44:39;101200.13;;;16.98;58.71
81387;BME280;70842;50.744;7.114;2024-02-15T10:47:07;101195.00;;;17.05;58.33
81387;BME280;70842;50.744;7.114;2024-02-15T10:49:35;101185.19;;;16.96;59.19
81387;BME280;70842;50.744;7.114;2024-02-15T10:52:05;101180.91;;;17.21;58.64
81387;BME280;70842;50.744;7.114;2024-02-15T10:54:39;101179.63;;;17.07;58.23
81387;BME280;70842;50.744;7.114;2024-02-15T10:57:09;101166.91;;;16.56;59.69
81387;BME280;70842;50.744;7.114;2024-02-15T10:59:37;101165.34;;;17.24;58.60
81387;BME280;70842;50.744;7.114;2024-02-15T11:02:28;101170.19;;;17.38;57.92
81387;BME280;70842;50.744;7.114;2024-02-15T11:05:02;101162.75;;;17.50;57.39
81387;BME280;70842;50.744;7.114;2024-02-15T11:07:31;101164.75;;;17.30;58.02
81387;BME280;70842;50.744;7.114;2024-02-15T11:09:59;101145.69;;;17.51;57.36
81387;BME280;70842;50.744;7.114;2024-02-15T11:12:26;101142.66;;;17.54;57.59
81387;BME280;70842;50.744;7.114;2024-02-15T11:14:53;101149.78;;;17.97;56.14
81387;BME280;70842;50.744;7.114;2024-02-15T11:20:09;101141.22;;;17.59;56.97
81387;BME280;70842;50.744;7.114;2024-02-15T11:22:38;101139.63;;;17.31;56.84
81387;BME280;70842;50.744;7.114;2024-02-15T11:25:09;101133.13;;;17.51;56.90
81387;BME280;70842;50.744;7.114;2024-02-15T11:27:38;101137.72;;;17.92;56.38
81387;BME280;70842;50.744;7.114;2024-02-15T11:30:06;101135.72;;;17.94;55.79
81387;BME280;70842;50.744;7.114;2024-02-15T11:32:44;101132.53;;;17.22;58.01
81387;BME280;70842;50.744;7.114;2024-02-15T11:35:14;101131.56;;;18.00;56.10
81387;BME280;70842;50.744;7.114;2024-02-15T11:42:55;101123.19;;;18.03;55.99
81387;BME280;70842;50.744;7.114;2024-02-15T11:45:23;101116.34;;;18.09;55.11
81387;BME280;70842;50.744;7.114;2024-02-15T11:47:53;101104.88;;;17.90;55.23
81387;BME280;70842;50.744;7.114;2024-02-15T11:50:21;101109.56;;;17.63;56.39
81387;BME280;70842;50.744;7.114;2024-02-15T11:52:49;101108.38;;;17.57;56.56
81387;BME280;70842;50.744;7.114;2024-02-15T11:55:20;101113.75;;;17.40;56.72
81387;BME280;70842;50.744;7.114;2024-02-15T11:58:01;101104.19;;;17.88;56.03
81387;BME280;70842;50.744;7.114;2024-02-15T12:00:38;101100.81;;;17.35;56.41
81387;BME280;70842;50.744;7.114;2024-02-15T12:03:24;101090.41;;;17.06;57.28
81387;BME280;70842;50.744;7.114;2024-02-15T12:06:27;101103.50;;;17.35;57.09
81387;BME280;70842;50.744;7.114;2024-02-15T12:09:12;101098.06;;;17.45;56.61
81387;BME280;70842;50.744;7.114;2024-02-15T12:11:58;101107.47;;;17.74;56.31
81387;BME280;70842;50.744;7.114;2024-02-15T12:14:43;101108.91;;;17.61;56.86
81387;BME280;70842;50.744;7.114;2024-02-15T12:17:29;101106.13;;;18.12;55.54
81387;BME280;70842;50.744;7.114;2024-02-15T12:20:14;101099.25;;;17.76;56.12
81387;BME280;70842;50.744;7.114;2024-02-15T12:22:45;101096.34;;;17.44;56.35
81387;BME280;70842;50.744;7.114;2024-02-15T12:25:14;101091.06;;;17.77;55.67
81387;BME280;70842;50.744;7.114;2024-02-15T12:27:45;101087.56;;;18.19;55.57
81387;BME280;70842;50.744;7.114;2024-02-15T12:30:14;101074.06;;;18.03;55.29
81387;BME280;70842;50.744;7.114;2024-02-15T12:32:41;101074.06;;;18.03;54.56
81387;BME280;70842;50.744;7.114;2024-02-15T12:35:12;101067.06;;;18.10;54.71
81387;BME280;70842;50.744;7.114;2024-02-15T12:37:43;101058.84;;;18.11;54.22
81387;BME280;70842;50.744;7.114;2024-02-15T12:40:16;101053.78;;;18.58;53.97
81387;BME280;70842;50.744;7.114;2024-02-15T12:42:44;101061.25;;;18.30;53.37
81387;BME280;70842;50.744;7.114;2024-02-15T12:45:20;101061.66;;;18.92;53.05
81387;BME280;70842;50.744;7.114;2024-02-15T12:47:51;101045.03;;;19.28;52.28
81387;BME280;70842;50.744;7.114;2024-02-15T12:50:20;101052.31;;;18.96;51.97
81387;BME280;70842;50.744;7.114;2024-02-15T12:52:49;101048.25;;;19.00;51.90
81387;BME280;70842;50.744;7.114;2024-02-15T12:55:17;101044.88;;;18.90;52.01
81387;BME280;70842;50.744;7.114;2024-02-15T12:57:48;101024.22;;;19.22;51.49
81387;BME280;70842;50.744;7.114;2024-02-15T13:00:20;101034.28;;;19.36;51.02
81387;BME280;70842;50.744;7.114;2024-02-15T13:02:49;101034.16;;;18.98;51.17
81387;BME280;70842;50.744;7.114;2024-02-15T13:05:17;101013.19;;;18.93;51.76
81387;BME280;70842;50.744;7.114;2024-02-15T13:07:48;101015.34;;;18.90;52.47